Time;durP1;ratioP1;P1;durP2;ratioP2;P2;SDS_P1;SDS_P2;PMS_P1;PMS_P2;Temp;Humidity;BMP_temperature;BMP_pressure;BME280_temperature;BME280_humidity;BME280_pressure;Samples;Min_cycle;Max_cycle;Signal;HPM_P1;HPM_P2
2024/02/01 00:02:27;;;;;;;24.33;12.48;;;7.90;99.90;;;;;;5014647;28;20026;-74
2024/02/01 00:04:52;;;;;;;23.38;11.98;;;7.90;99.90;;;;;;5015070;28;20032;-75
2024/02/01 00:07:21;;;;;;;20.17;13.05;;;7.90;99.90;;;;;;5032926;28;20037;-74
2024/02/01 00:09:48;;;;;;;25.63;14.07;;;8.00;99.90;;;;;;5032206;28;20032;-74
2024/02/01 00:12:14;;;;;;;20.30;13.00;;;7.90;99.90;;;;;;5014389;28;20103;-76
2024/02/01 00:14:40;;;;;;;22.77;14.10;;;8.00;99.90;;;;;;5032457;28;20076;-74
2024/02/01 00:17:05;;;;;;;25.45;14.07;;;8.00;99.90;;;;;;5014611;28;20499;-75
2024/02/01 00:19:31;;;;;;;24.98;13.20;;;8.00;99.90;;;;;;5031753;28;20410;-75
2024/02/01 00:22:00;;;;;;;26.27;13.70;;;8.00;99.90;;;;;;5032178;28;20391;-75
2024/02/01 00:24:25;;;;;;;22.17;13.65;;;8.00;99.90;;;;;;5031632;28;20020;-75
2024/02/01 00:26:51;;;;;;;23.25;13.70;;;8.00;99.90;;;;;;5014205;28;20029;-75
2024/02/01 00:29:17;;;;;;;28.58;14.90;;;8.00;99.90;;;;;;5031773;28;20033;-75
2024/02/01 00:31:45;;;;;;;26.35;14.88;;;8.00;99.90;;;;;;5032076;28;20030;-75
2024/02/01 00:34:11;;;;;;;20.70;12.52;;;8.10;99.90;;;;;;5031444;28;20061;-75
2024/02/01 00:36:39;;;;;;;29.05;15.55;;;8.10;99.90;;;;;;5031940;28;20525;-75
2024/02/01 00:39:05;;;;;;;26.80;16.05;;;8.10;99.90;;;;;;5031217;28;20025;-74
2024/02/01 00:41:31;;;;;;;25.60;16.35;;;8.10;99.90;;;;;;5030947;28;20067;-74
2024/02/01 00:44:00;;;;;;;27.75;16.70;;;8.10;99.90;;;;;;5031630;28;20482;-73
2024/02/01 00:46:25;;;;;;;25.38;15.70;;;8.10;99.90;;;;;;5031569;28;20044;-74
2024/02/01 00:48:54;;;;;;;31.58;15.57;;;8.20;99.90;;;;;;5031476;28;20565;-75
2024/02/01 00:51:20;;;;;;;28.80;15.82;;;8.10;99.90;;;;;;5031866;28;20056;-75
2024/02/01 00:53:45;;;;;;;26.33;16.27;;;8.20;99.90;;;;;;5030992;28;20539;-75
2024/02/01 00:56:11;;;;;;;28.77;15.88;;;8.20;99.90;;;;;;5013942;28;20499;-76
2024/02/01 00:58:37;;;;;;;31.98;16.50;;;8.20;99.90;;;;;;5031062;28;20570;-75
2024/02/01 01:01:03;;;;;;;25.70;16.83;;;8.30;99.90;;;;;;5031634;28;20156;-74
2024/02/01 01:03:28;;;;;;;30.83;16.77;;;8.20;99.90;;;;;;5031031;28;20114;-74
2024/02/01 01:05:57;;;;;;;29.00;17.45;;;8.30;99.90;;;;;;5031556;28;20076;-74
2024/02/01 01:08:22;;;;;;;33.45;15.40;;;8.30;99.90;;;;;;5013128;28;20146;-75
2024/02/01 01:10:48;;;;;;;27.98;15.75;;;8.30;99.90;;;;;;5031593;28;20104;-74
2024/02/01 01:13:14;;;;;;;31.83;18.00;;;8.30;99.90;;;;;;5031411;28;20402;-76
2024/02/01 01:15:40;;;;;;;33.22;17.85;;;8.30;99.90;;;;;;5031296;28;20594;-74
2024/02/01 01:18:07;;;;;;;30.42;16.40;;;8.40;99.90;;;;;;5030895;28;20101;-74
2024/02/01 01:20:33;;;;;;;25.45;14.38;;;8.40;99.90;;;;;;5031204;28;20045;-74
2024/02/01 01:22:58;;;;;;;29.05;16.80;;;8.40;99.90;;;;;;5031023;28;20044;-75
2024/02/01 01:25:24;;;;;;;29.83;16.95;;;8.40;99.90;;;;;;5031221;28;20049;-74
2024/02/01 01:27:50;;;;;;;32.30;17.65;;;8.40;99.90;;;;;;5030819;28;20113;-75
2024/02/01 01:30:16;;;;;;;31.20;16.55;;;8.40;99.90;;;;;;5031200;28;20029;-74
2024/02/01 01:32:42;;;;;;;33.13;16.48;;;8.50;99.90;;;;;;5030779;28;20079;-76
2024/02/01 01:35:08;;;;;;;32.08;17.60;;;8.50;99.90;;;;;;5031017;28;20047;-76
2024/02/01 01:37:37;;;;;;;32.08;17.90;;;8.50;99.90;;;;;;5030813;28;20018;-76
2024/02/01 01:40:03;;;;;;;33.10;16.10;;;8.60;99.90;;;;;;5013545;28;20022;-76
2024/02/01 01:42:29;;;;;;;21.30;12.57;;;8.60;99.90;;;;;;5030925;28;20052;-76
2024/02/01 01:44:55;;;;;;;30.38;15.52;;;8.60;99.90;;;;;;5030993;28;20025;-76
2024/02/01 01:47:20;;;;;;;28.63;15.35;;;8.60;99.90;;;;;;5031149;28;20033;-76
2024/02/01 01:49:46;;;;;;;36.67;15.27;;;8.70;99.90;;;;;;5030724;28;20024;-76
2024/02/01 01:52:14;;;;;;;33.38;16.63;;;8.70;99.90;;;;;;5045787;28;20379;-76
2024/02/01 01:54:40;;;;;;;28.70;15.52;;;8.70;99.90;;;;;;5034424;28;20064;-76
2024/02/01 01:57:06;;;;;;;30.98;16.63;;;8.80;99.90;;;;;;5034701;28;20018;-76
2024/02/01 01:59:32;;;;;;;30.33;17.17;;;8.80;99.90;;;;;;5034196;28;20036;-76
2024/02/01 02:02:01;;;;;;;30.38;13.95;;;8.80;99.90;;;;;;5016932;28;20116;-76
2024/02/01 02:04:27;;;;;;;28.70;17.30;;;8.80;99.90;;;;;;5034223;28;20017;-76
2024/02/01 02:06:56;;;;;;;29.88;16.42;;;8.90;99.90;;;;;;5034799;28;20095;-76
2024/02/01 02:09:22;;;;;;;33.20;18.00;;;8.90;99.90;;;;;;5020657;28;20037;-76
2024/02/01 02:11:51;;;;;;;31.02;16.27;;;8.90;99.90;;;;;;5034580;28;20026;-76
2024/02/01 02:14:16;;;;;;;31.02;16.23;;;8.90;99.90;;;;;;5034164;28;20441;-76
2024/02/01 02:16:45;;;;;;;30.25;16.98;;;8.90;99.90;;;;;;5034338;28;20100;-76
2024/02/01 02:19:12;;;;;;;28.15;14.13;;;8.90;99.90;;;;;;5034256;28;20050;-75
2024/02/01 02:21:49;;;;;;;26.63;14.50;;;8.90;99.90;;;;;;5016216;28;20157;-75
2024/02/01 02:24:15;;;;;;;34.33;16.13;;;9.00;99.90;;;;;;5034088;28;20036;-75
2024/02/01 02:26:42;;;;;;;33.10;17.25;;;9.00;99.90;;;;;;5034354;28;20068;-76
2024/02/01 02:29:08;;;;;;;23.80;14.98;;;9.00;99.90;;;;;;5034033;28;20026;-76
2024/02/01 02:31:35;;;;;;;32.75;16.08;;;9.00;99.90;;;;;;5016208;28;20029;-75
2024/02/01 02:34:04;;;;;;;30.63;15.45;;;9.00;99.90;;;;;;5021450;28;20017;-76
2024/02/01 02:36:30;;;;;;;33.97;16.33;;;9.00;99.90;;;;;;5034500;28;20032;-76
2024/02/01 02:38:55;;;;;;;29.60;15.57;;;9.10;99.90;;;;;;5033950;28;20029;-76
2024/02/01 02:41:21;;;;;;;28.92;15.57;;;9.10;99.90;;;;;;5034293;28;20049;-75
2024/02/01 02:43:47;;;;;;;26.83;15.00;;;9.10;99.90;;;;;;5015641;28;20014;-76
2024/02/01 02:46:13;;;;;;;25.65;14.38;;;9.10;99.90;;;;;;5034086;28;20028;-76
2024/02/01 02:48:38;;;;;;;36.80;15.35;;;9.10;99.90;;;;;;5033068;28;20422;-76
2024/02/01 02:51:04;;;;;;;27.15;13.93;;;9.10;99.90;;;;;;5033872;28;20030;-76
2024/02/01 02:53:30;;;;;;;26.95;13.50;;;9.10;99.90;;;;;;5033464;28;20037;-76
2024/02/01 02:55:58;;;;;;;29.23;14.07;;;9.20;99.90;;;;;;5033912;28;20029;-76
2024/02/01 02:58:27;;;;;;;32.33;14.55;;;9.20;99.90;;;;;;5033638;28;20025;-75
2024/02/01 03:00:52;;;;;;;40.13;14.88;;;9.20;99.90;;;;;;5002486;28;20025;-76
2024/02/01 03:03:18;;;;;;;31.05;14.75;;;9.20;99.90;;;;;;5032406;28;20483;-76
2024/02/01 03:05:44;;;;;;;39.65;15.77;;;9.30;99.90;;;;;;5033821;28;20026;-76
2024/02/01 03:08:11;;;;;;;28.23;11.52;;;9.30;99.90;;;;;;5033290;28;20048;-76
2024/02/01 03:10:40;;;;;;;32.28;14.27;;;9.30;99.90;;;;;;5015605;28;20071;-76
2024/02/01 03:13:09;;;;;;;30.95;12.70;;;9.30;99.90;;;;;;5015541;28;20081;-76
2024/02/01 03:15:36;;;;;;;33.72;13.18;;;9.30;99.90;;;;;;5033191;28;20479;-76
2024/02/01 03:18:03;;;;;;;29.88;11.70;;;9.30;99.90;;;;;;5032924;28;20048;-77
2024/02/01 03:20:32;;;;;;;26.35;11.52;;;9.40;99.90;;;;;;5033234;28;20438;-76
2024/02/01 03:22:58;;;;;;;33.55;11.85;;;9.30;99.90;;;;;;5019213;28;20021;-76
2024/02/01 03:25:31;;;;;;;35.05;11.40;;;9.30;99.90;;;;;;5033158;28;20029;-76
2024/02/01 03:28:01;;;;;;;26.48;9.13;;;9.40;99.90;;;;;;5033214;28;20041;-76
2024/02/01 03:30:46;;;;;;;31.00;9.35;;;9.40;99.90;;;;;;5033113;28;20025;-76
2024/02/01 03:33:13;;;;;;;30.40;8.85;;;9.30;99.90;;;;;;5014980;28;20048;-76
2024/02/01 03:35:39;;;;;;;34.25;8.65;;;9.40;99.90;;;;;;5014901;28;20025;-76
2024/02/01 03:38:05;;;;;;;32.40;8.30;;;9.30;99.90;;;;;;5032873;28;20047;-76
2024/02/01 03:40:31;;;;;;;30.70;8.25;;;9.30;99.90;;;;;;5032739;28;20640;-76
2024/02/01 03:42:57;;;;;;;27.55;6.97;;;9.30;99.90;;;;;;5014569;28;20537;-76
2024/02/01 03:45:23;;;;;;;21.17;5.45;;;9.30;99.90;;;;;;5032788;28;20112;-75
2024/02/01 03:47:49;;;;;;;30.10;5.70;;;9.30;99.90;;;;;;5032947;28;20100;-75
2024/02/01 03:50:14;;;;;;;27.88;5.18;;;9.20;99.90;;;;;;5032492;28;20041;-75
2024/02/01 03:52:45;;;;;;;32.58;4.57;;;9.20;99.90;;;;;;5032705;28;20506;-75
2024/02/01 03:55:17;;;;;;;18.75;4.72;;;9.20;99.90;;;;;;5014309;28;20120;-76
2024/02/01 03:57:44;;;;;;;27.42;4.03;;;9.20;99.90;;;;;;5014873;28;20036;-75
2024/02/01 04:00:24;;;;;;;21.13;4.43;;;9.10;99.90;;;;;;5032798;28;20036;-75
2024/02/01 04:02:58;;;;;;;29.23;4.53;;;9.10;99.90;;;;;;5032892;28;20040;-75
2024/02/01 04:05:25;;;;;;;24.05;3.85;;;9.00;99.90;;;;;;5032427;28;20033;-76
2024/02/01 04:07:51;;;;;;;23.60;3.67;;;9.00;99.90;;;;;;5014460;28;20025;-75
2024/02/01 04:10:20;;;;;;;21.23;3.97;;;8.90;99.90;;;;;;5014181;28;20055;-73
2024/02/01 04:12:46;;;;;;;24.02;3.83;;;8.90;99.90;;;;;;5019085;28;20428;-75
2024/02/01 04:15:11;;;;;;;23.50;3.78;;;8.90;99.90;;;;;;5031973;28;20112;-75
2024/02/01 04:17:42;;;;;;;28.52;3.67;;;8.90;99.90;;;;;;5032094;28;20101;-75
2024/02/01 04:20:09;;;;;;;25.67;3.45;;;8.90;99.90;;;;;;5013907;28;20021;-75
2024/02/01 04:22:35;;;;;;;26.17;2.88;;;8.80;99.90;;;;;;5031858;28;20017;-75
2024/02/01 04:25:00;;;;;;;22.38;3.30;;;8.80;99.90;;;;;;5032148;28;20087;-75
2024/02/01 04:27:29;;;;;;;26.42;3.15;;;8.80;99.90;;;;;;5032285;28;20093;-75
2024/02/01 04:29:54;;;;;;;18.17;3.03;;;8.70;99.90;;;;;;5031870;28;20022;-75
2024/02/01 04:32:21;;;;;;;23.45;3.10;;;8.70;99.90;;;;;;5032152;28;20159;-75
2024/02/01 04:34:47;;;;;;;26.25;2.55;;;8.60;99.90;;;;;;5013690;28;20430;-75
2024/02/01 04:37:13;;;;;;;27.85;3.30;;;8.50;99.90;;;;;;5032010;28;20081;-74
2024/02/01 04:39:38;;;;;;;23.15;3.78;;;8.50;99.90;;;;;;5031429;28;20024;-77
2024/02/01 04:42:16;;;;;;;25.23;3.15;;;8.40;99.90;;;;;;5014210;28;20798;-75
2024/02/01 04:44:43;;;;;;;20.48;2.90;;;8.40;99.90;;;;;;5031544;28;20025;-76
2024/02/01 04:47:10;;;;;;;25.08;2.78;;;8.30;99.90;;;;;;5031923;28;20442;-76
2024/02/01 04:49:36;;;;;;;22.67;3.13;;;8.30;99.90;;;;;;5031431;28;20033;-75
2024/02/01 04:52:06;;;;;;;26.17;2.97;;;8.20;99.90;;;;;;5031716;28;20081;-76
2024/02/01 04:54:34;;;;;;;23.38;2.65;;;8.20;99.90;;;;;;5031031;28;20071;-75
2024/02/01 04:57:02;;;;;;;32.05;2.90;;;8.00;99.90;;;;;;5031599;28;20436;-76
2024/02/01 04:59:28;;;;;;;16.15;2.33;;;8.00;99.90;;;;;;5031052;28;20021;-75
2024/02/01 05:01:54;;;;;;;19.38;2.30;;;8.00;99.90;;;;;;5031229;28;20067;-75
2024/02/01 05:04:22;;;;;;;26.77;3.13;;;7.90;99.90;;;;;;5031150;28;20080;-76
2024/02/01 05:06:50;;;;;;;23.42;2.60;;;7.80;99.90;;;;;;5031570;28;20026;-76
2024/02/01 05:09:25;;;;;;;31.92;3.20;;;7.70;99.90;;;;;;5031270;28;20426;-75
2024/02/01 05:11:54;;;;;;;23.33;2.47;;;7.70;99.90;;;;;;5031670;28;20041;-75
2024/02/01 05:14:21;;;;;;;17.75;1.83;;;7.60;99.90;;;;;;5031061;28;20036;-76
2024/02/01 05:16:49;;;;;;;28.15;3.20;;;7.60;99.90;;;;;;5031148;28;20121;-76
2024/02/01 05:19:15;;;;;;;17.05;1.90;;;7.50;99.90;;;;;;5030907;28;20091;-76
2024/02/01 05:21:41;;;;;;;24.10;3.00;;;7.50;99.90;;;;;;5013943;28;20048;-75
2024/02/01 05:24:08;;;;;;;23.08;2.45;;;7.40;99.90;;;;;;5031088;28;20033;-76
2024/02/01 05:26:37;;;;;;;26.70;2.35;;;7.40;99.90;;;;;;5033825;28;20087;-75
2024/02/01 05:29:04;;;;;;;24.02;2.25;;;7.30;99.90;;;;;;5035092;28;20029;-76
2024/02/01 05:31:33;;;;;;;22.50;2.88;;;7.20;99.90;;;;;;5017130;28;20037;-76
2024/02/01 05:33:59;;;;;;;17.83;2.88;;;7.20;99.90;;;;;;5035061;28;20059;-75
2024/02/01 05:36:25;;;;;;;23.38;2.50;;;7.20;99.90;;;;;;5035541;28;20475;-75
2024/02/01 05:38:50;;;;;;;19.92;2.53;;;7.10;99.90;;;;;;5034734;28;20049;-76
2024/02/01 05:41:16;;;;;;;24.55;2.70;;;7.10;99.90;;;;;;5035154;28;20025;-76
2024/02/01 05:43:43;;;;;;;27.10;2.95;;;7.10;99.90;;;;;;5016828;28;20018;-75
2024/02/01 05:46:09;;;;;;;28.08;3.03;;;7.10;99.90;;;;;;5035546;28;20087;-76
2024/02/01 05:48:38;;;;;;;29.65;2.78;;;7.00;99.90;;;;;;5034483;28;20029;-76
2024/02/01 05:51:04;;;;;;;25.05;2.35;;;6.90;99.90;;;;;;5017142;28;20021;-76
2024/02/01 05:53:30;;;;;;;24.80;2.22;;;6.90;99.90;;;;;;5034681;28;20032;-76
2024/02/01 05:55:56;;;;;;;18.17;2.53;;;6.90;99.90;;;;;;5034968;28;20559;-76
2024/02/01 05:58:22;;;;;;;28.17;3.38;;;6.80;99.90;;;;;;5034677;28;20036;-76
2024/02/01 06:00:48;;;;;;;22.98;2.80;;;6.80;99.90;;;;;;5034497;28;20045;-75
2024/02/01 06:03:13;;;;;;;22.52;2.90;;;6.80;99.90;;;;;;5034796;28;20032;-76
2024/02/01 06:05:39;;;;;;;17.30;2.45;;;6.70;99.90;;;;;;5034453;28;20068;-76
2024/02/01 06:08:06;;;;;;;27.38;3.15;;;6.70;99.90;;;;;;5016976;28;20423;-75
2024/02/01 06:10:31;;;;;;;28.55;2.92;;;6.60;99.90;;;;;;5034247;28;20748;-76
2024/02/01 06:12:57;;;;;;;26.33;3.00;;;6.60;99.90;;;;;;5016856;28;20024;-75
2024/02/01 06:15:22;;;;;;;30.15;3.30;;;6.60;99.90;;;;;;5034265;28;20091;-76
2024/02/01 06:17:51;;;;;;;33.10;3.00;;;6.50;99.90;;;;;;5016569;28;20119;-74
2024/02/01 06:20:17;;;;;;;22.02;2.78;;;6.50;99.90;;;;;;5034209;28;20074;-76
2024/02/01 06:22:42;;;;;;;27.27;3.20;;;6.40;99.90;;;;;;5034200;28;20545;-76
2024/02/01 06:25:12;;;;;;;24.25;2.80;;;6.40;99.90;;;;;;5034358;28;20048;-75
2024/02/01 06:27:41;;;;;;;17.73;2.45;;;6.30;99.90;;;;;;5034604;28;20056;-76
2024/02/01 06:30:10;;;;;;;23.63;2.42;;;6.30;99.90;;;;;;5034520;28;20036;-76
2024/02/01 06:32:36;;;;;;;22.30;2.90;;;6.20;99.90;;;;;;5016437;28;20364;-76
2024/02/01 06:35:06;;;;;;;28.80;2.83;;;6.20;99.90;;;;;;5040018;28;20021;-75
2024/02/01 06:37:39;;;;;;;26.35;2.60;;;6.20;99.90;;;;;;5033364;28;20021;-76
2024/02/01 06:40:48;;;;;;;23.17;2.90;;;6.20;99.90;;;;;;5033753;28;20071;-75
2024/02/01 06:43:16;;;;;;;20.98;2.75;;;6.10;99.90;;;;;;5030499;28;20404;-76
2024/02/01 06:46:49;;;;;;;25.08;2.78;;;6.10;99.90;;;;;;5033652;28;20021;-76
2024/02/01 06:48:41;;;;;;;19.45;2.60;;;6.00;99.90;;;;;;5022679;28;20067;-76
2024/02/01 06:51:21;;;;;;;20.08;2.63;;;6.00;99.90;;;;;;5034091;28;20071;-76
2024/02/01 06:53:56;;;;;;;18.20;2.38;;;6.00;99.90;;;;;;5033510;28;20079;-76
2024/02/01 07:05:21;;;;;;;18.40;2.60;;;5.80;99.90;;;;;;5012593;28;20033;-75
2024/02/01 07:08:02;;;;;;;17.27;2.80;;;5.80;99.90;;;;;;5030211;28;20021;-75
2024/02/01 07:10:43;;;;;;;28.07;3.33;;;5.70;99.90;;;;;;5034045;28;20051;-76
2024/02/01 07:13:21;;;;;;;28.85;3.17;;;5.70;99.90;;;;;;5023516;28;20025;-75
2024/02/01 07:15:48;;;;;;;18.15;2.55;;;5.60;99.90;;;;;;5034635;28;20029;-75
2024/02/01 07:18:14;;;;;;;19.88;3.60;;;5.60;99.90;;;;;;5033034;28;20046;-76
2024/02/01 07:25:48;;;;;;;13.80;2.58;;;5.50;99.90;;;;;;5032290;28;20056;-76
2024/02/01 07:58:30;;;;;;;22.02;3.30;;;5.50;99.90;;;;;;5016958;28;20127;-76
2024/02/01 08:01:01;;;;;;;20.70;3.30;;;5.50;99.90;;;;;;5031357;28;20025;-76
2024/02/01 08:08:57;;;;;;;21.02;3.38;;;5.50;99.90;;;;;;5030820;28;20048;-76
2024/02/01 08:11:23;;;;;;;21.75;3.20;;;5.50;99.90;;;;;;5019766;28;20100;-76
2024/02/01 08:13:48;;;;;;;32.28;3.97;;;5.40;99.90;;;;;;5030113;28;20254;-76
2024/02/01 08:16:17;;;;;;;28.65;4.60;;;5.50;99.90;;;;;;5030579;28;20083;-75
2024/02/01 08:18:43;;;;;;;19.75;4.32;;;5.50;99.90;;;;;;5030472;28;20072;-75
2024/02/01 08:21:14;;;;;;;29.92;4.03;;;5.50;99.90;;;;;;5012355;28;20041;-76
2024/02/01 08:23:40;;;;;;;;;;;5.50;99.90;;;;;;5014825;28;20029;-76
2024/02/01 08:26:06;;;;;;;31.50;3.55;;;5.50;99.90;;;;;;5031890;28;19905;-75
2024/02/01 08:28:35;;;;;;;31.35;5.00;;;5.50;99.90;;;;;;5031672;28;20057;-76
2024/02/01 08:31:08;;;;;;;29.45;5.47;;;5.60;99.90;;;;;;5031512;28;20128;-76
2024/02/01 08:33:42;;;;;;;23.85;4.28;;;5.60;99.90;;;;;;5031778;28;20053;-76
2024/02/01 08:36:10;;;;;;;27.05;5.13;;;5.60;99.90;;;;;;5031614;28;20149;-76
2024/02/01 08:38:36;;;;;;;22.08;5.03;;;5.60;99.90;;;;;;5031838;28;20118;-76
2024/02/01 08:41:05;;;;;;;29.52;5.07;;;5.70;99.90;;;;;;5019498;28;20021;-75
2024/02/01 08:43:33;;;;;;;26.70;5.22;;;5.70;99.90;;;;;;5031464;28;20013;-75
2024/02/01 08:46:02;;;;;;;28.48;5.97;;;5.70;99.90;;;;;;5031271;28;20025;-76
2024/02/01 08:48:28;;;;;;;30.67;5.95;;;5.80;99.90;;;;;;5031530;28;20017;-76
2024/02/01 08:50:58;;;;;;;30.77;5.57;;;5.80;99.90;;;;;;5013861;28;20068;-76
2024/02/01 08:53:23;;;;;;;31.70;5.78;;;5.80;99.90;;;;;;5031850;28;20037;-76
2024/02/01 08:55:52;;;;;;;28.90;6.10;;;5.80;99.90;;;;;;5022714;28;20021;-76
2024/02/01 08:58:19;;;;;;;33.03;5.47;;;5.90;99.90;;;;;;5036677;28;20029;-76
2024/02/01 09:00:44;;;;;;;34.38;5.57;;;5.90;99.90;;;;;;5030465;28;20014;-76
2024/02/01 09:03:21;;;;;;;30.52;5.72;;;6.00;99.90;;;;;;5023366;28;20163;-76
2024/02/01 09:05:51;;;;;;;33.28;5.38;;;6.00;99.90;;;;;;5032034;28;20021;-76
2024/02/01 09:08:36;;;;;;;28.23;4.85;;;6.00;99.90;;;;;;5009966;28;20026;-76
2024/02/01 09:11:12;;;;;;;29.77;5.65;;;6.10;99.90;;;;;;5024360;28;20036;-75
2024/02/01 09:13:45;;;;;;;22.80;4.38;;;6.10;99.90;;;;;;5031481;28;20475;-76
2024/02/01 09:16:31;;;;;;;25.85;3.88;;;6.20;99.90;;;;;;5000014;28;20033;-79
2024/02/01 09:19:01;;;;;;;26.40;4.43;;;6.30;99.90;;;;;;5037803;28;20036;-79
2024/02/01 09:21:27;;;;;;;21.00;4.05;;;6.40;99.90;;;;;;5040127;28;20077;-77
2024/02/01 09:23:53;;;;;;;18.80;3.78;;;6.40;99.90;;;;;;5031611;28;20025;-76
2024/02/01 09:26:19;;;;;;;29.15;3.95;;;6.50;99.90;;;;;;5012546;28;20121;-76
2024/02/01 09:28:45;;;;;;;27.85;4.13;;;6.50;99.90;;;;;;5013286;28;20028;-75
2024/02/01 09:31:21;;;;;;;21.15;3.08;;;6.60;99.90;;;;;;5031010;28;20021;-76
2024/02/01 09:33:49;;;;;;;26.95;3.50;;;6.70;99.90;;;;;;5031260;28;20320;-76
2024/02/01 09:36:15;;;;;;;18.50;3.17;;;6.80;99.90;;;;;;5030872;28;20013;-76
2024/02/01 09:38:44;;;;;;;28.15;3.95;;;6.90;99.90;;;;;;5031200;28;20547;-75
2024/02/01 09:41:15;;;;;;;24.30;3.78;;;6.90;99.90;;;;;;5012908;28;20026;-76
2024/02/01 09:43:52;;;;;;;25.42;3.40;;;7.00;99.90;;;;;;5014813;28;20029;-76
2024/02/01 09:46:18;;;;;;;20.92;3.88;;;7.10;99.90;;;;;;5030987;28;20084;-76
2024/02/01 09:48:45;;;;;;;26.42;3.55;;;7.20;99.90;;;;;;5030132;28;20013;-76
2024/02/01 09:51:23;;;;;;;33.58;3.83;;;7.20;99.90;;;;;;5012466;28;20116;-76
2024/02/01 09:53:50;;;;;;;21.90;3.40;;;7.30;99.90;;;;;;5013175;28;20033;-76
2024/02/01 09:56:25;;;;;;;24.58;3.30;;;7.40;99.90;;;;;;5013143;28;20025;-76
2024/02/01 09:58:51;;;;;;;24.23;3.85;;;7.50;99.90;;;;;;5031034;28;20114;-76
2024/02/01 10:01:17;;;;;;;19.50;2.80;;;7.50;99.90;;;;;;5030680;28;20169;-76
2024/02/01 10:03:43;;;;;;;24.25;3.20;;;7.50;99.90;;;;;;5030930;28;20499;-76
2024/02/01 10:06:09;;;;;;;27.35;4.03;;;7.60;99.90;;;;;;5030253;28;20052;-76
2024/02/01 10:08:36;;;;;;;25.48;3.90;;;7.60;99.90;;;;;;5011604;28;20048;-75
2024/02/01 10:11:05;;;;;;;26.88;4.45;;;7.70;99.90;;;;;;5011225;28;20731;-76
2024/02/01 10:13:35;;;;;;;27.77;3.33;;;7.80;99.90;;;;;;5031953;28;20017;-76
2024/02/01 10:16:01;;;;;;;21.73;4.40;;;7.90;99.90;;;;;;5032399;28;20031;-76
2024/02/01 10:18:27;;;;;;;28.02;3.30;;;7.90;99.90;;;;;;5033335;28;20121;-76
2024/02/01 10:20:56;;;;;;;22.98;3.70;;;8.00;99.90;;;;;;5032814;28;20460;-76
2024/02/01 10:23:23;;;;;;;23.88;3.60;;;8.10;99.90;;;;;;5034109;28;20033;-76
2024/02/01 10:25:53;;;;;;;26.35;3.95;;;8.10;99.90;;;;;;5033976;28;20391;-76
2024/02/01 10:28:25;;;;;;;26.85;4.25;;;8.20;99.90;;;;;;5034295;28;20026;-77
2024/02/01 10:30:57;;;;;;;29.00;3.72;;;8.30;99.90;;;;;;5034003;28;20034;-77
2024/02/01 10:33:25;;;;;;;29.83;4.43;;;8.40;99.90;;;;;;5034606;28;20028;-76
2024/02/01 10:35:53;;;;;;;26.63;3.83;;;8.50;99.90;;;;;;5028235;28;20029;-76
2024/02/01 10:38:44;;;;;;;24.20;3.70;;;8.50;99.90;;;;;;5034402;28;20024;-76
2024/02/01 10:41:12;;;;;;;;;;;8.60;99.90;;;;;;5034299;28;20017;-76
2024/02/01 10:43:44;;;;;;;22.85;3.58;;;8.70;99.90;;;;;;5034114;28;19928;-76
2024/02/01 10:46:12;;;;;;;26.50;3.88;;;8.70;99.90;;;;;;5033991;28;20032;-76
2024/02/01 10:48:47;;;;;;;28.40;4.03;;;8.80;99.90;;;;;;5033834;28;20086;-76
2024/02/01 10:51:16;;;;;;;18.98;3.47;;;8.90;99.90;;;;;;5033642;28;20065;-76
2024/02/01 10:53:44;;;;;;;29.83;4.05;;;8.90;99.90;;;;;;5033601;28;20021;-76
2024/02/01 10:56:15;;;;;;;24.75;3.90;;;9.00;99.90;;;;;;5033687;28;20116;-76
2024/02/01 10:58:45;;;;;;;19.67;3.17;;;9.10;99.90;;;;;;5033813;28;20457;-77
2024/02/01 11:01:17;;;;;;;21.73;3.83;;;9.10;99.90;;;;;;5033709;28;20017;-76
2024/02/01 11:03:47;;;;;;;19.42;3.60;;;9.20;99.90;;;;;;5033775;28;20644;-77
2024/02/01 11:06:14;;;;;;;29.05;4.20;;;9.30;99.90;;;;;;5033312;28;20033;-77
2024/02/01 11:08:40;;;;;;;29.15;4.90;;;9.30;99.90;;;;;;5015701;28;20418;-76
2024/02/01 11:11:16;;;;;;;28.92;4.10;;;9.40;99.90;;;;;;5033705;28;20021;-76
2024/02/01 11:13:45;;;;;;;26.15;4.35;;;9.50;99.90;;;;;;5033695;28;20021;-76
2024/02/01 11:16:11;;;;;;;26.83;3.85;;;9.60;99.90;;;;;;5013577;28;20106;-76
2024/02/01 11:18:47;;;;;;;30.95;5.45;;;9.60;99.90;;;;;;5025474;28;20057;-76
2024/02/01 11:21:23;;;;;;;29.23;5.28;;;9.70;99.90;;;;;;5033426;28;20026;-76
2024/02/01 11:23:49;;;;;;;19.55;3.55;;;9.80;99.90;;;;;;5033105;28;20018;-77
2024/02/01 11:26:16;;;;;;;31.75;4.38;;;9.80;99.90;;;;;;5033540;28;20091;-77
2024/02/01 11:28:47;;;;;;;20.67;3.20;;;9.90;99.90;;;;;;5033516;28;20029;-77
2024/02/01 11:31:16;;;;;;;21.02;3.30;;;10.00;99.90;;;;;;5033129;28;20029;-76
2024/02/01 11:33:43;;;;;;;24.25;3.80;;;10.10;99.90;;;;;;5033318;28;20490;-76
2024/02/01 11:36:08;;;;;;;20.30;4.43;;;10.20;99.90;;;;;;5033380;28;20064;-76
2024/02/01 11:38:34;;;;;;;20.30;4.05;;;10.20;99.90;;;;;;5015501;28;20455;-77
2024/02/01 11:41:00;;;;;;;25.30;4.03;;;10.30;99.90;;;;;;5032787;28;20083;-77
2024/02/01 11:43:29;;;;;;;18.52;4.57;;;10.30;99.90;;;;;;5015305;28;20064;-76
2024/02/01 11:45:56;;;;;;;20.48;3.83;;;10.40;99.90;;;;;;5032894;28;20026;-77
2024/02/01 11:48:25;;;;;;;20.52;4.25;;;10.40;99.90;;;;;;5033214;28;20108;-77
2024/02/01 11:50:58;;;;;;;19.40;3.90;;;10.50;99.90;;;;;;5033175;28;20032;-76
2024/02/01 11:53:24;;;;;;;19.55;4.50;;;10.50;99.90;;;;;;5033129;28;20018;-78
2024/02/01 11:55:54;;;;;;;25.13;3.92;;;10.50;99.90;;;;;;5032738;28;20044;-76
2024/02/01 11:58:22;;;;;;;24.77;4.28;;;10.50;99.90;;;;;;5033382;28;20049;-76
2024/02/01 12:00:50;;;;;;;26.45;4.30;;;10.60;99.90;;;;;;5032502;28;20026;-76
2024/02/01 12:03:19;;;;;;;23.98;4.72;;;10.60;99.90;;;;;;5032772;28;20018;-75
2024/02/01 12:05:45;;;;;;;21.88;3.95;;;10.70;99.90;;;;;;5032378;28;20045;-76
2024/02/01 12:08:13;;;;;;;18.38;3.40;;;10.80;99.90;;;;;;5015097;28;20072;-77
2024/02/01 12:10:39;;;;;;;23.20;4.25;;;10.90;99.90;;;;;;5032085;28;20061;-77
2024/02/01 12:13:08;;;;;;;22.65;4.78;;;10.90;99.90;;;;;;5032454;28;20426;-76
2024/02/01 12:15:36;;;;;;;26.27;4.50;;;11.00;99.90;;;;;;5031857;28;20036;-76
2024/02/01 12:18:02;;;;;;;21.40;3.90;;;11.00;99.90;;;;;;5032349;28;20044;-77
2024/02/01 12:20:30;;;;;;;22.95;3.50;;;11.10;99.90;;;;;;5032253;28;20018;-77
2024/02/01 12:23:01;;;;;;;26.38;3.85;;;11.10;99.90;;;;;;5032392;28;20036;-77
2024/02/01 12:25:30;;;;;;;;;;;11.20;99.90;;;;;;5032831;28;20029;-77
2024/02/01 12:27:57;;;;;;;29.02;3.67;;;11.30;99.90;;;;;;5032803;28;19916;-77
2024/02/01 12:30:27;;;;;;;21.20;4.28;;;11.30;99.90;;;;;;5032371;28;20052;-77
2024/02/01 12:32:53;;;;;;;25.83;4.35;;;11.30;99.90;;;;;;5032237;28;20024;-77
2024/02/01 12:35:22;;;;;;;24.45;4.20;;;11.40;99.90;;;;;;5031092;28;20059;-77
2024/02/01 12:37:48;;;;;;;22.13;4.72;;;11.30;99.90;;;;;;5031443;28;20028;-77
2024/02/01 12:40:16;;;;;;;23.30;4.45;;;11.30;99.90;;;;;;5031706;28;20029;-78
2024/02/01 12:42:43;;;;;;;17.83;3.60;;;11.30;99.90;;;;;;5032057;28;20025;-76
2024/02/01 12:45:20;;;;;;;24.23;3.92;;;11.30;99.90;;;;;;5031575;28;20026;-77
2024/02/01 12:47:53;;;;;;;23.42;3.92;;;11.30;99.90;;;;;;5031846;28;20407;-76
2024/02/01 12:50:20;;;;;;;22.60;4.30;;;11.20;99.90;;;;;;5031780;28;20021;-77
2024/02/01 12:52:46;;;;;;;26.35;4.97;;;11.20;99.90;;;;;;5014080;28;20793;-77
2024/02/01 12:55:13;;;;;;;28.88;3.67;;;11.20;99.90;;;;;;5031685;28;20501;-77
2024/02/01 12:57:40;;;;;;;23.85;3.85;;;11.30;99.90;;;;;;5031896;28;20028;-77
2024/02/01 13:00:07;;;;;;;18.75;3.53;;;11.40;99.90;;;;;;5031425;28;20033;-77
2024/02/01 13:02:34;;;;;;;22.05;3.30;;;11.50;99.90;;;;;;5017665;28;20038;-77
2024/02/01 13:04:59;;;;;;;22.45;4.25;;;11.60;99.90;;;;;;5031387;28;20040;-77
2024/02/01 13:07:25;;;;;;;21.38;4.25;;;11.60;99.90;;;;;;5031276;28;20021;-76
2024/02/01 13:09:51;;;;;;;20.95;3.95;;;11.60;99.90;;;;;;5031245;28;20060;-76
2024/02/01 13:12:22;;;;;;;23.52;4.60;;;11.70;99.90;;;;;;5031402;28;20029;-76
2024/02/01 13:14:57;;;;;;;25.30;4.32;;;11.80;99.90;;;;;;5031458;28;20029;-76
2024/02/01 13:17:25;;;;;;;26.42;4.30;;;11.80;99.90;;;;;;5031076;28;20501;-76
2024/02/01 13:19:51;;;;;;;24.13;4.30;;;11.90;99.90;;;;;;5031218;28;20048;-77
2024/02/01 13:22:17;;;;;;;22.33;4.28;;;11.90;99.90;;;;;;5031520;28;20080;-77
2024/02/01 13:24:46;;;;;;;25.20;4.45;;;11.90;99.90;;;;;;5031242;28;20416;-78
2024/02/01 13:27:15;;;;;;;17.42;4.00;;;11.90;99.90;;;;;;5031080;28;20125;-77
2024/02/01 13:29:44;;;;;;;21.25;4.07;;;11.90;99.90;;;;;;5031290;28;20013;-75
2024/02/01 13:32:23;;;;;;;20.00;3.55;;;12.00;99.90;;;;;;5031246;28;20025;-77
2024/02/01 13:34:49;;;;;;;20.48;3.63;;;12.00;99.90;;;;;;5031298;28;20017;-76
2024/02/01 13:37:18;;;;;;;25.42;3.90;;;12.00;99.90;;;;;;5031399;28;20071;-77
2024/02/01 13:39:44;;;;;;;18.30;3.35;;;12.00;99.90;;;;;;5031107;28;20033;-77